Kwara Camp Airport

BW-0033 · 博茨瓦纳

METAR BW-0033 · Kwara Camp Airport

使用的METAR站距离机场243 km。
罗盘
风向 的 风向 的 风向 到 风向 060° Kwara Camp Airport 12/30
风: 6 kt, 2 beaufort

4 kt

5 kt
改变
0 ft 1.000 2.000 3.000 4.000 5.000
CAVOK
METAR FBKE 170900Z 06006KT 030V090 CAVOK 26/00 Q1024

METAR Kwara Camp Airport - BW-0033

该字段位于博茨瓦纳中。 该机场位于纬度-19,10286和经度23,28881。 该机场有一条跑道: 12/30. 这个机场没有ICAO代码,我们使用BW-0033作为参考。 机场在Gaborone FIR中。

该航空气象观测是针对Kasane Airport在2024年7月17日 11:00, 当地时间进行的。

机场观察

风向为060°,速度为6 kt。 风向在030°和090°之间变化。

天气为CAVOK。这意味着在5.000 ft或MSA(最低安全高度)以下(以较高者为准)以下没有云。这也意味着没有观测到积雨云或高耸的积云,可见度为10 km 或者更多或更高。此外,不会有雾,降雨或其他重要天气。

温度和风寒是26 °C。 海平面上的气压为1024 hPa (QNH)。

白天

今天,太阳从06:59升起,在18:06降落。 这适用于Kwara Camp Airport,世界夏令时可能有所不同。 当地时间与世界标准时间之间的时差为+2 小时。 夏令时目前正在进行中。

公司介绍

我们没有关于这个机场的公司信息。

体会

到Vliegles.nl去找飞行课程,跳伞和其他飞行体验。 浏览页面,了解Kwara Camp Airport附近所有可用的活动。 你也可以使用搜索功能来寻找你所在地附近的特定飞行课程、跳伞或其他飞行体验。

跑道

Id 标题 侧风 逆风 侧风 %
12/30 110°-290° 5 kt 4 kt 77 %

逆风成分最大的方向会被突出显示,并用于横风计算。 这并不一定意味着这个方向在使用。

温度 & 天气

温度 26 °C
露点 0 °C
相对湿度 18%
Kp-index 0 (0-9)

白天

日出
06:50
中午
12:25
日落
18:00 (6:20)

小工具

你想在你的网站上有一个关于Kwara Camp Airport的当前航空天气(METAR)的小部件吗?

显示HTML代码
报告变更